Time;durP1;ratioP1;P1;durP2;ratioP2;P2;SDS_P1;SDS_P2;PMS_P1;PMS_P2;Temp;Humidity;BMP_temperature;BMP_pressure;BME280_temperature;BME280_humidity;BME280_pressure;Samples;Min_cycle;Max_cycle;Signal;HPM_P1;HPM_P2
2023/09/29 00:00:59;;;;;;;9.98;6.78;;;;;;;18.54;87.49;101335.81;4828122;29;20058;-65
2023/09/29 00:03:27;;;;;;;8.13;6.45;;;;;;;18.48;86.90;101337.88;4828348;29;20093;-65
2023/09/29 00:05:54;;;;;;;12.77;7.00;;;;;;;18.46;87.44;101339.31;4828298;29;20113;-65
2023/09/29 00:08:22;;;;;;;12.48;6.57;;;;;;;18.43;87.54;101343.53;4828255;29;20525;-65
2023/09/29 00:10:50;;;;;;;13.68;7.20;;;;;;;18.52;86.68;101333.34;4827887;29;20447;-65
2023/09/29 00:13:18;;;;;;;12.88;7.45;;;;;;;18.56;86.07;101341.03;4827858;29;20498;-65
2023/09/29 00:15:48;;;;;;;12.65;6.72;;;;;;;18.59;86.43;101326.53;4828214;29;20054;-65
2023/09/29 00:18:16;;;;;;;10.02;6.93;;;;;;;18.56;85.65;101332.72;4828607;29;20052;-64
2023/09/29 00:20:44;;;;;;;9.55;6.20;;;;;;;18.46;86.52;101334.59;4824715;29;20046;-65
2023/09/29 00:23:12;;;;;;;13.32;7.00;;;;;;;18.47;86.96;101329.91;4825637;29;20050;-65
2023/09/29 00:25:41;;;;;;;9.48;6.35;;;;;;;18.43;87.39;101329.69;4823207;29;20050;-65
2023/09/29 00:28:10;;;;;;;9.20;6.70;;;;;;;18.36;88.57;101319.06;4825267;29;20175;-65
2023/09/29 00:30:38;;;;;;;12.93;6.40;;;;;;;18.35;88.54;101320.19;4808993;29;20490;-65
2023/09/29 00:33:06;;;;;;;9.80;6.80;;;;;;;18.32;88.87;101328.31;4825077;29;20061;-65
2023/09/29 00:35:34;;;;;;;8.77;6.13;;;;;;;18.36;88.19;101329.31;4808543;29;20050;-65
2023/09/29 00:38:02;;;;;;;10.10;6.55;;;;;;;18.34;88.51;101324.06;4824814;29;20050;-65
2023/09/29 00:40:30;;;;;;;10.80;6.75;;;;;;;18.26;88.82;101322.06;4824620;29;20406;-65
2023/09/29 00:42:59;;;;;;;12.60;6.95;;;;;;;18.36;89.09;101315.44;4825115;29;20058;-65
2023/09/29 00:45:28;;;;;;;11.60;6.32;;;;;;;18.32;88.38;101320.81;4825235;29;20057;-65
2023/09/29 00:48:04;;;;;;;12.82;6.35;;;;;;;18.40;88.97;101322.84;4824347;29;20417;-65
2023/09/29 00:50:34;;;;;;;12.02;6.70;;;;;;;18.35;88.68;101316.59;4808119;29;20406;-65
2023/09/29 00:53:11;;;;;;;10.60;6.90;;;;;;;18.19;89.45;101316.16;4824331;29;20058;-65
2023/09/29 00:55:41;;;;;;;8.23;6.22;;;;;;;18.18;89.76;101325.59;4808566;29;20405;-65
2023/09/29 00:58:12;;;;;;;12.00;6.53;;;;;;;18.29;89.41;101317.84;4824107;29;20159;-64
2023/09/29 01:00:41;;;;;;;9.10;7.13;;;;;;;18.18;90.92;101311.75;4823734;29;20409;-65
2023/09/29 01:03:13;;;;;;;11.15;7.15;;;;;;;18.07;89.74;101308.38;4824549;29;20062;-65
2023/09/29 01:05:52;;;;;;;9.98;7.13;;;;;;;18.16;90.25;101305.69;4807920;29;20061;-65
2023/09/29 01:08:23;;;;;;;10.07;7.03;;;;;;;18.09;90.58;101306.94;4823954;29;20839;-65
2023/09/29 01:10:55;;;;;;;9.88;6.65;;;;;;;18.00;93.23;101309.59;4807556;29;20065;-65
2023/09/29 01:13:23;;;;;;;10.70;7.68;;;;;;;18.09;90.94;101308.91;4824293;29;20050;-65
2023/09/29 01:15:51;;;;;;;11.90;7.88;;;;;;;17.99;90.94;101307.97;4808354;29;20058;-65
2023/09/29 01:18:19;;;;;;;10.38;6.70;;;;;;;17.89;91.07;101310.19;4823848;29;20059;-65
2023/09/29 01:20:47;;;;;;;16.52;7.05;;;;;;;17.86;91.37;101308.84;4823317;29;20058;-65
2023/09/29 01:23:15;;;;;;;11.27;7.10;;;;;;;17.91;91.96;101305.13;4823849;29;20059;-67
2023/09/29 01:25:44;;;;;;;9.88;6.90;;;;;;;17.83;92.37;101313.06;4807765;29;20051;-67
2023/09/29 01:28:12;;;;;;;10.40;6.95;;;;;;;17.82;93.25;101305.06;4808175;29;20406;-67
2023/09/29 01:30:43;;;;;;;10.10;6.82;;;;;;;17.75;93.43;101308.28;4823062;29;20425;-67
2023/09/29 01:33:12;;;;;;;10.18;6.10;;;;;;;17.70;91.98;101303.66;4807712;29;20046;-67
2023/09/29 01:35:42;;;;;;;12.50;7.38;;;;;;;17.73;92.58;101303.03;4824556;29;20494;-67
2023/09/29 01:38:12;;;;;;;9.25;6.82;;;;;;;17.70;92.37;101308.38;4823658;29;20062;-67
2023/09/29 01:40:40;;;;;;;10.18;7.28;;;;;;;17.72;91.96;101308.88;4824006;29;20055;-67
2023/09/29 01:43:08;;;;;;;9.93;6.50;;;;;;;17.73;91.89;101297.50;4824012;29;20521;-67
2023/09/29 01:45:38;;;;;;;13.05;6.80;;;;;;;17.75;92.33;101305.50;4823671;29;20402;-67
2023/09/29 01:48:07;;;;;;;10.57;6.05;;;;;;;17.70;92.65;101298.13;4824342;29;20383;-67
2023/09/29 01:50:35;;;;;;;9.63;6.47;;;;;;;17.69;92.17;101299.25;4824061;29;20046;-67
2023/09/29 01:53:03;;;;;;;11.45;7.28;;;;;;;17.67;92.24;101297.91;4806790;29;20058;-67
2023/09/29 01:55:31;;;;;;;8.95;6.78;;;;;;;17.69;91.97;101302.00;4823438;29;20074;-67
2023/09/29 01:58:00;;;;;;;11.10;6.82;;;;;;;17.73;91.32;101291.97;4807327;29;20394;-67
2023/09/29 02:00:29;;;;;;;11.75;6.95;;;;;;;17.67;91.97;101297.91;4806892;29;20054;-66
2023/09/29 02:03:00;;;;;;;11.50;6.38;;;;;;;17.57;93.46;101298.97;4823817;29;20059;-67
2023/09/29 02:05:28;;;;;;;13.25;7.45;;;;;;;17.64;91.73;101296.59;4823735;29;20069;-67
2023/09/29 02:07:58;;;;;;;10.15;7.35;;;;;;;17.64;92.14;101296.59;4822864;29;20062;-67
2023/09/29 02:10:26;;;;;;;11.68;6.53;;;;;;;17.55;93.12;101295.69;4822652;29;20063;-67
2023/09/29 02:12:57;;;;;;;10.82;6.82;;;;;;;17.48;93.07;101295.28;4823785;29;20050;-67
2023/09/29 02:15:31;;;;;;;10.00;6.55;;;;;;;17.46;92.45;101298.38;4807305;29;20529;-67
2023/09/29 02:17:59;;;;;;;10.32;6.88;;;;;;;17.42;92.02;101294.59;4792609;29;20050;-67
2023/09/29 02:20:30;;;;;;;11.52;6.97;;;;;;;17.41;92.64;101296.50;4806050;29;20490;-67
2023/09/29 02:22:59;;;;;;;8.70;6.80;;;;;;;17.38;93.32;101297.16;4806959;29;20070;-67
2023/09/29 02:25:29;;;;;;;9.57;6.40;;;;;;;17.39;93.04;101303.50;4806892;29;20540;-67
2023/09/29 02:27:59;;;;;;;7.45;6.43;;;;;;;17.37;92.46;101295.53;4806674;29;20410;-67
2023/09/29 02:30:28;;;;;;;7.88;5.97;;;;;;;17.36;92.37;101299.41;4822513;29;20061;-66
2023/09/29 02:32:56;;;;;;;9.45;6.35;;;;;;;17.36;93.27;101304.13;4806505;29;20502;-67
2023/09/29 02:35:25;;;;;;;11.48;7.10;;;;;;;17.40;92.57;101305.94;4822841;29;20062;-67
2023/09/29 02:37:53;;;;;;;9.50;6.47;;;;;;;17.38;93.34;101299.91;4822796;29;20061;-67
2023/09/29 02:40:22;;;;;;;8.25;6.28;;;;;;;17.35;93.79;101297.75;4822663;29;20061;-67
2023/09/29 02:42:50;;;;;;;8.60;5.50;;;;;;;17.43;93.07;101299.81;4805885;29;20058;-67
2023/09/29 02:45:19;;;;;;;12.60;6.57;;;;;;;17.48;91.73;101300.81;4806417;29;20058;-67
2023/09/29 02:47:47;;;;;;;11.50;6.55;;;;;;;17.48;91.76;101304.41;4822631;29;20065;-65
2023/09/29 02:50:18;;;;;;;9.23;6.15;;;;;;;17.53;91.44;101295.16;4822486;29;20065;-65
2023/09/29 02:52:46;;;;;;;9.73;6.50;;;;;;;17.44;92.68;101293.16;4822632;29;20057;-65
2023/09/29 02:55:14;;;;;;;12.68;6.78;;;;;;;17.42;91.38;101297.34;4822656;29;20054;-64
2023/09/29 02:57:44;;;;;;;8.15;5.72;;;;;;;17.37;91.50;101295.53;4822480;29;20490;-65
2023/09/29 03:00:18;;;;;;;10.43;6.43;;;;;;;17.32;91.91;101298.38;4806313;29;20057;-65
2023/09/29 03:02:48;;;;;;;9.43;6.82;;;;;;;17.29;93.24;101294.28;4806585;29;20087;-65
2023/09/29 03:05:21;;;;;;;13.00;6.10;;;;;;;17.28;91.94;101300.94;4805867;29;20409;-65
2023/09/29 03:07:49;;;;;;;7.93;6.05;;;;;;;17.24;92.73;101291.63;4805953;29;20071;-65
2023/09/29 03:10:26;;;;;;;8.68;6.45;;;;;;;17.22;92.88;101295.81;4823330;29;20089;-64
2023/09/29 03:12:56;;;;;;;7.78;6.40;;;;;;;17.21;93.07;101296.97;4821797;29;20057;-64
2023/09/29 03:15:26;;;;;;;10.10;6.80;;;;;;;17.25;92.37;101298.00;4829896;29;20536;-65
2023/09/29 03:17:55;;;;;;;9.70;5.78;;;;;;;17.22;93.31;101293.06;4822654;29;20081;-65
2023/09/29 03:20:28;;;;;;;8.57;6.15;;;;;;;17.22;92.90;101282.00;4806716;29;20379;-65
2023/09/29 03:23:04;;;;;;;8.48;6.03;;;;;;;17.22;93.22;101293.88;4806330;29;20418;-65
2023/09/29 03:25:32;;;;;;;8.68;6.50;;;;;;;17.28;92.72;101287.13;4806382;29;20062;-65
2023/09/29 03:28:00;;;;;;;8.45;6.15;;;;;;;17.26;93.28;101288.56;4822028;29;20069;-65
2023/09/29 03:30:28;;;;;;;7.57;5.97;;;;;;;17.35;91.93;101286.69;4806655;29;20042;-67
2023/09/29 03:32:57;;;;;;;10.18;6.20;;;;;;;17.30;92.94;101286.81;4822468;29;20061;-67
2023/09/29 03:35:25;;;;;;;8.27;5.95;;;;;;;17.37;91.55;101289.16;4822030;29;20395;-68
2023/09/29 03:37:54;;;;;;;10.85;6.30;;;;;;;17.42;90.93;101287.13;4820998;29;20057;-66
2023/09/29 03:40:22;;;;;;;7.90;6.22;;;;;;;17.36;91.92;101282.81;4822231;29;20051;-67
2023/09/29 03:42:50;;;;;;;11.90;6.38;;;;;;;17.37;91.27;101292.75;4822822;29;20046;-66
2023/09/29 03:45:18;;;;;;;8.98;6.32;;;;;;;17.39;92.18;101281.34;4822250;29;20061;-67
2023/09/29 03:47:46;;;;;;;9.68;6.65;;;;;;;17.41;91.24;101279.91;4821489;29;20050;-67
2023/09/29 03:50:15;;;;;;;11.35;6.47;;;;;;;17.26;92.98;101289.34;4815577;29;20057;-67
2023/09/29 03:52:46;;;;;;;9.75;6.88;;;;;;;17.25;93.26;101278.63;4822949;29;20058;-66
2023/09/29 03:55:14;;;;;;;8.00;6.25;;;;;;;17.21;92.56;101292.25;4824349;29;20070;-67
2023/09/29 03:57:44;;;;;;;8.75;6.50;;;;;;;17.17;92.84;101289.25;4825146;29;20521;-66
2023/09/29 04:00:14;;;;;;;11.45;6.88;;;;;;;17.07;93.31;101286.72;4825162;29;20059;-66
2023/09/29 04:02:42;;;;;;;11.07;6.57;;;;;;;17.15;93.23;101288.75;4825428;29;20055;-66
2023/09/29 04:05:11;;;;;;;11.10;6.80;;;;;;;17.15;93.47;101287.94;4825252;29;20059;-67
2023/09/29 04:07:39;;;;;;;10.85;6.72;;;;;;;17.09;93.53;101286.41;4809026;29;20054;-67
2023/09/29 04:10:13;;;;;;;9.10;6.03;;;;;;;17.15;92.07;101293.47;4825012;29;20062;-66
2023/09/29 04:12:44;;;;;;;8.75;6.70;;;;;;;17.09;92.30;101290.00;4825577;29;20057;-67
2023/09/29 04:15:13;;;;;;;7.25;5.90;;;;;;;17.15;92.12;101290.69;4824547;29;20043;-67
2023/09/29 04:17:41;;;;;;;8.52;5.93;;;;;;;17.17;92.05;101297.56;4825033;29;20491;-67
2023/09/29 04:20:10;;;;;;;9.80;6.32;;;;;;;17.15;91.98;101299.00;4824903;29;20054;-66
2023/09/29 04:22:37;;;;;;;11.77;6.20;;;;;;;17.10;91.74;101302.69;4809522;29;20042;-66
2023/09/29 04:25:09;;;;;;;11.25;6.28;;;;;;;17.03;91.72;101302.28;4825078;29;20434;-66
2023/09/29 04:27:39;;;;;;;10.38;6.50;;;;;;;17.06;91.55;101296.16;4824873;29;20051;-66
2023/09/29 04:30:08;;;;;;;10.40;6.22;;;;;;;17.08;91.90;101299.41;4824872;29;20409;-66
2023/09/29 04:32:37;;;;;;;8.02;6.15;;;;;;;17.27;91.42;101304.03;4843477;29;20057;-66
2023/09/29 04:35:06;;;;;;;11.68;6.20;;;;;;;17.26;91.16;101305.16;4843242;29;20042;-66
2023/09/29 04:37:33;;;;;;;8.25;6.43;;;;;;;17.19;91.51;101302.78;4835660;29;20042;-66
2023/09/29 04:40:02;;;;;;;11.70;5.97;;;;;;;17.14;93.06;101300.13;4819120;29;20050;-66
2023/09/29 04:42:31;;;;;;;10.75;6.85;;;;;;;17.09;93.35;101292.75;4819581;29;20045;-66
2023/09/29 04:44:59;;;;;;;8.82;6.60;;;;;;;17.08;93.35;101301.34;4819435;29;20278;-66
2023/09/29 04:47:27;;;;;;;10.23;6.15;;;;;;;17.08;92.42;101306.88;4819705;29;20058;-66
2023/09/29 04:49:55;;;;;;;10.43;6.47;;;;;;;17.03;93.07;101305.03;4822855;29;20084;-66
2023/09/29 04:52:24;;;;;;;10.88;6.28;;;;;;;17.04;92.96;101304.75;4828667;29;20054;-66
2023/09/29 04:54:53;;;;;;;12.38;7.00;;;;;;;16.99;93.08;101309.50;4830384;29;20425;-66
2023/09/29 04:57:22;;;;;;;10.63;6.50;;;;;;;16.93;93.14;101309.59;4830837;29;20058;-66
2023/09/29 04:59:50;;;;;;;11.65;6.13;;;;;;;16.95;93.00;101306.53;4824619;29;20054;-66
2023/09/29 05:02:18;;;;;;;13.45;6.57;;;;;;;16.97;93.52;101303.47;4824078;29;20062;-66
2023/09/29 05:04:45;;;;;;;11.70;6.40;;;;;;;16.96;93.68;101307.38;4824321;29;20494;-66
2023/09/29 05:07:13;;;;;;;13.32;6.80;;;;;;;16.97;93.83;101312.59;4824539;29;20061;-66
2023/09/29 05:09:41;;;;;;;7.75;6.40;;;;;;;16.96;93.87;101313.69;4823712;29;20494;-66
2023/09/29 05:12:09;;;;;;;9.48;6.57;;;;;;;16.99;92.92;101313.09;4824336;29;20050;-67
2023/09/29 05:14:36;;;;;;;9.93;6.50;;;;;;;17.02;94.03;101311.66;4822956;29;20058;-67
2023/09/29 05:17:05;;;;;;;7.35;6.40;;;;;;;17.07;93.09;101314.38;4825516;29;20395;-67
2023/09/29 05:19:33;;;;;;;8.45;6.63;;;;;;;17.11;91.58;101315.38;4829769;29;20062;-65
2023/09/29 05:22:01;;;;;;;8.52;6.03;;;;;;;17.15;92.03;101310.06;4828811;29;20405;-65
2023/09/29 05:24:29;;;;;;;8.70;5.55;;;;;;;17.18;91.38;101326.88;4839320;29;20049;-65
2023/09/29 05:26:56;;;;;;;10.23;6.55;;;;;;;17.27;89.96;101321.44;4830437;29;20050;-65
2023/09/29 05:29:24;;;;;;;9.23;6.65;;;;;;;17.25;91.64;101325.66;4838872;29;20386;-65
2023/09/29 05:31:52;;;;;;;9.73;5.95;;;;;;;17.30;92.05;101322.78;4837056;29;20058;-65
2023/09/29 05:34:20;;;;;;;9.07;6.18;;;;;;;17.23;92.28;101331.47;4841568;29;20072;-65
2023/09/29 05:36:48;;;;;;;12.52;6.82;;;;;;;17.23;91.22;101327.88;4841727;29;20061;-65
2023/09/29 05:39:16;;;;;;;11.85;6.70;;;;;;;17.25;91.79;101328.41;4841643;29;20490;-65
2023/09/29 05:41:44;;;;;;;9.93;6.72;;;;;;;17.37;90.96;101334.25;4842564;29;20402;-65
2023/09/29 05:44:12;;;;;;;7.57;5.82;;;;;;;17.44;90.26;101337.41;4825286;29;20054;-65
2023/09/29 05:46:40;;;;;;;8.25;6.38;;;;;;;17.51;90.86;101344.47;4821535;29;20047;-65
2023/09/29 05:49:09;;;;;;;9.55;6.25;;;;;;;17.61;90.22;101338.75;4823409;29;20077;-65
2023/09/29 05:51:37;;;;;;;10.52;6.10;;;;;;;17.68;89.44;101352.13;4823490;29;20046;-65
2023/09/29 05:54:05;;;;;;;7.72;5.63;;;;;;;17.81;88.47;101359.63;4805865;29;20497;-65
2023/09/29 05:56:33;;;;;;;15.07;6.65;;;;;;;17.87;87.73;101352.00;4819270;29;20070;-65
2023/09/29 05:59:01;;;;;;;9.07;6.55;;;;;;;18.06;87.43;101351.06;4823330;29;20062;-65
2023/09/29 06:01:29;;;;;;;13.00;6.65;;;;;;;18.19;86.68;101358.50;4823425;29;20050;-65
2023/09/29 06:03:58;;;;;;;10.10;5.97;;;;;;;18.35;86.63;101352.59;4823063;29;20059;-65
2023/09/29 06:06:27;;;;;;;10.82;6.45;;;;;;;18.73;84.83;101356.94;4823383;29;20058;-73
2023/09/29 06:08:56;;;;;;;8.32;6.00;;;;;;;19.17;83.01;101369.09;4797296;29;20061;-73
2023/09/29 06:11:24;;;;;;;9.45;6.32;;;;;;;19.45;81.03;101359.75;4799012;29;20054;-74
2023/09/29 06:13:54;;;;;;;7.68;5.50;;;;;;;19.49;79.72;101357.97;4810212;29;20054;-74
2023/09/29 06:16:24;;;;;;;8.43;5.25;;;;;;;19.63;79.05;101368.13;4778713;29;20062;-74
2023/09/29 06:18:52;;;;;;;14.95;6.53;;;;;;;19.71;78.82;101375.66;4774416;29;20054;-74
2023/09/29 06:21:22;;;;;;;7.80;5.63;;;;;;;19.87;77.63;101374.06;4774947;29;20081;-74
2023/09/29 06:23:50;;;;;;;11.60;5.78;;;;;;;20.02;78.18;101374.75;4774587;29;20051;-75
2023/09/29 06:26:21;;;;;;;9.30;6.57;;;;;;;19.90;78.01;101377.31;4774997;29;20081;-75
2023/09/29 06:28:50;;;;;;;8.00;5.93;;;;;;;20.16;76.83;101387.66;4774545;29;20065;-74
2023/09/29 06:31:19;;;;;;;9.38;6.03;;;;;;;20.21;75.92;101381.97;4789462;29;20057;-74
2023/09/29 06:33:48;;;;;;;12.30;6.05;;;;;;;20.36;75.67;101389.00;4788307;29;20046;-74
2023/09/29 06:36:17;;;;;;;8.07;6.07;;;;;;;20.38;76.92;101386.72;4777631;29;20050;-74
2023/09/29 06:38:47;;;;;;;9.98;5.30;;;;;;;20.38;76.57;101384.75;4792273;29;20106;-74
2023/09/29 06:41:15;;;;;;;11.45;6.10;;;;;;;20.50;76.41;101389.66;4775816;29;20065;-75
2023/09/29 06:43:46;;;;;;;11.90;6.03;;;;;;;20.62;76.75;101386.19;4784378;29;20065;-75
2023/09/29 06:46:15;;;;;;;9.10;5.63;;;;;;;20.76;76.01;101387.94;4791889;29;20066;-75
2023/09/29 06:48:44;;;;;;;8.30;5.45;;;;;;;20.82;75.10;101389.41;4807871;29;20050;-75
2023/09/29 06:51:15;;;;;;;10.90;5.57;;;;;;;21.02;74.75;101398.25;4808015;29;20050;-75
2023/09/29 06:53:44;;;;;;;10.48;5.80;;;;;;;21.06;75.31;101399.19;4808013;29;20061;-75
2023/09/29 06:56:16;;;;;;;14.93;6.50;;;;;;;21.08;74.25;101392.16;4793176;29;20054;-75
2023/09/29 06:58:46;;;;;;;7.32;5.60;;;;;;;21.21;74.37;101386.72;4807991;29;20051;-75
2023/09/29 07:01:16;;;;;;;7.78;5.25;;;;;;;21.23;72.66;101394.72;4807885;29;20054;-75
2023/09/29 07:03:45;;;;;;;8.55;5.13;;;;;;;21.42;73.15;101384.03;4792975;29;20057;-75
2023/09/29 07:06:15;;;;;;;6.40;5.10;;;;;;;21.47;72.28;101385.78;4807992;29;20058;-75
2023/09/29 07:08:45;;;;;;;8.93;5.30;;;;;;;21.57;72.05;101384.59;4792404;29;20058;-75
2023/09/29 07:11:14;;;;;;;11.93;6.25;;;;;;;21.74;71.09;101384.53;4807067;29;20063;-75
2023/09/29 07:13:42;;;;;;;7.43;5.03;;;;;;;21.83;70.18;101389.22;4792589;29;20073;-75
2023/09/29 07:16:11;;;;;;;9.80;5.32;;;;;;;21.92;69.45;101401.13;4806900;29;20046;-75
2023/09/29 07:18:41;;;;;;;7.75;5.45;;;;;;;22.06;69.11;101391.69;4791978;29;20065;-75
2023/09/29 07:21:10;;;;;;;7.18;5.13;;;;;;;22.16;68.99;101391.28;4807128;29;20055;-75
2023/09/29 07:23:39;;;;;;;9.10;5.88;;;;;;;22.16;69.25;101394.06;4807103;29;20062;-75
2023/09/29 07:26:07;;;;;;;9.60;5.38;;;;;;;22.24;68.29;101395.16;4806608;29;20058;-75
2023/09/29 07:28:36;;;;;;;8.95;4.90;;;;;;;22.34;67.16;101393.94;4792612;29;20050;-75
2023/09/29 07:31:04;;;;;;;7.35;5.30;;;;;;;22.37;68.50;101393.22;4810683;29;20077;-75
2023/09/29 07:33:33;;;;;;;10.20;5.22;;;;;;;22.36;68.66;101394.41;4810685;29;20084;-75
2023/09/29 07:36:02;;;;;;;9.32;5.00;;;;;;;22.51;67.21;101404.09;4795495;29;20051;-75
2023/09/29 07:38:31;;;;;;;7.18;5.47;;;;;;;22.61;66.37;101402.88;4810603;29;20153;-75
2023/09/29 07:41:01;;;;;;;7.88;5.00;;;;;;;22.64;66.24;101402.22;4810566;29;20050;-75
2023/09/29 07:43:30;;;;;;;8.73;5.20;;;;;;;22.75;66.10;101403.41;4810767;29;20055;-75
2023/09/29 07:45:59;;;;;;;8.38;5.53;;;;;;;22.72;67.64;101401.31;4810460;29;20059;-75
2023/09/29 07:48:29;;;;;;;9.63;5.45;;;;;;;22.81;65.91;101407.63;4810245;29;20058;-75
2023/09/29 07:50:57;;;;;;;9.45;5.00;;;;;;;22.98;64.43;101416.16;4795799;29;20077;-75
2023/09/29 07:53:26;;;;;;;8.82;4.82;;;;;;;23.03;63.45;101408.34;4795587;29;20410;-75
2023/09/29 07:55:55;;;;;;;7.50;4.40;;;;;;;23.13;63.20;101411.88;4810673;29;20066;-75
2023/09/29 07:58:23;;;;;;;8.20;4.72;;;;;;;23.16;63.38;101416.78;4795501;29;20093;-75
2023/09/29 08:00:52;;;;;;;6.18;4.20;;;;;;;23.26;62.28;101416.31;4810737;29;20054;-75
2023/09/29 08:03:20;;;;;;;5.30;4.07;;;;;;;23.25;62.30;101414.69;4797656;29;20050;-75
2023/09/29 08:05:49;;;;;;;7.88;4.30;;;;;;;23.34;62.65;101415.44;4780304;29;20051;-75
2023/09/29 08:08:17;;;;;;;7.47;5.07;;;;;;;23.46;63.05;101413.81;4780703;29;20058;-75
2023/09/29 08:10:47;;;;;;;7.70;4.50;;;;;;;23.60;62.16;101428.25;4780819;29;20062;-76
2023/09/29 08:13:16;;;;;;;8.20;4.53;;;;;;;23.64;61.69;101427.56;4796181;29;20057;-76
2023/09/29 08:15:45;;;;;;;6.18;4.70;;;;;;;23.69;61.26;101421.72;4795721;29;20054;-76
2023/09/29 08:18:14;;;;;;;24.00;10.75;;;;;;;23.69;62.84;101428.13;4795183;29;20084;-76
2023/09/29 08:20:43;;;;;;;20.17;9.85;;;;;;;23.81;62.37;101427.31;4779364;29;20054;-75
2023/09/29 08:23:12;;;;;;;21.73;11.25;;;;;;;23.84;62.16;101432.19;4780558;29;20379;-76
2023/09/29 08:25:43;;;;;;;22.63;11.73;;;;;;;23.83;61.67;101436.16;4779241;29;20409;-75
2023/09/29 08:28:13;;;;;;;24.60;11.02;;;;;;;23.93;60.81;101431.22;4794621;29;20061;-75
2023/09/29 08:30:41;;;;;;;14.23;7.88;;;;;;;24.09;58.64;101440.56;4794242;29;20058;-76
2023/09/29 08:33:10;;;;;;;14.60;7.78;;;;;;;24.17;58.20;101441.59;4794061;29;20050;-75
2023/09/29 08:35:59;;;;;;;14.93;6.82;;;;;;;24.22;56.63;101430.19;4795207;29;20057;-75
2023/09/29 08:38:28;;;;;;;11.25;7.10;;;;;;;24.37;56.74;101445.41;4780004;29;20078;-75
2023/09/29 08:40:58;;;;;;;10.82;7.53;;;;;;;24.41;55.88;101446.31;4779579;29;20055;-75
2023/09/29 08:43:28;;;;;;;9.73;4.95;;;;;;;24.57;52.91;101453.94;4779615;29;20062;-75
2023/09/29 08:46:00;;;;;;;5.82;4.70;;;;;;;24.76;51.84;101452.47;4779873;29;20065;-75
2023/09/29 08:48:35;;;;;;;8.13;4.90;;;;;;;24.76;50.94;101444.06;4794067;29;20054;-76
2023/09/29 08:51:05;;;;;;;7.82;4.47;;;;;;;24.87;50.06;101450.03;4779652;29;20058;-75
2023/09/29 08:53:34;;;;;;;6.32;3.92;;;;;;;24.93;51.03;101456.97;4776693;29;20054;-75
2023/09/29 08:56:11;;;;;;;8.95;4.30;;;;;;;25.02;50.58;101456.81;4797042;29;20050;-75
2023/09/29 08:58:40;;;;;;;6.38;3.60;;;;;;;25.06;48.81;101452.09;4776329;29;20055;-75
2023/09/29 09:01:09;;;;;;;4.57;3.45;;;;;;;25.15;47.60;101461.16;4780767;29;20077;-75
2023/09/29 09:03:39;;;;;;;4.07;3.10;;;;;;;25.20;43.99;101460.09;4812194;29;20076;-76
2023/09/29 09:06:25;;;;;;;6.93;3.20;;;;;;;25.19;45.01;101459.28;4812824;29;20050;-75
2023/09/29 09:08:55;;;;;;;4.85;3.65;;;;;;;25.27;45.55;101462.25;4812186;29;20050;-75
2023/09/29 09:11:23;;;;;;;6.03;4.10;;;;;;;25.31;44.44;101463.97;4797148;29;20062;-75
2023/09/29 09:14:03;;;;;;;3.65;3.17;;;;;;;25.45;45.02;101457.94;4794387;29;20054;-75
2023/09/29 09:16:32;;;;;;;6.20;3.30;;;;;;;25.59;44.48;101451.91;4809695;29;20074;-75
2023/09/29 09:19:11;;;;;;;10.70;3.60;;;;;;;25.69;44.56;101446.91;4794624;29;20077;-75
2023/09/29 09:21:41;;;;;;;7.50;3.42;;;;;;;25.48;44.96;101460.00;4801988;29;20047;-75
2023/09/29 09:24:24;;;;;;;5.53;3.63;;;;;;;25.66;45.02;101454.06;4794628;29;20050;-75
2023/09/29 09:27:02;;;;;;;3.70;3.40;;;;;;;25.65;46.25;101454.44;4793822;29;20055;-75
2023/09/29 09:29:38;;;;;;;5.95;3.67;;;;;;;25.71;46.05;101448.16;4793197;29;20407;-76
2023/09/29 09:32:07;;;;;;;4.25;3.67;;;;;;;25.75;45.92;101454.69;4793222;29;20402;-76
2023/09/29 09:34:37;;;;;;;6.70;4.05;;;;;;;25.87;45.75;101452.94;4793510;29;20054;-75
2023/09/29 09:37:06;;;;;;;4.85;3.20;;;;;;;25.89;45.82;101442.19;4778269;29;20383;-76
2023/09/29 09:39:35;;;;;;;5.68;3.13;;;;;;;25.91;45.86;101439.84;4793442;29;20050;-77
2023/09/29 09:42:05;;;;;;;5.82;3.88;;;;;;;25.98;45.54;101439.16;4793125;29;20054;-76
2023/09/29 09:44:38;;;;;;;6.43;3.85;;;;;;;25.98;45.30;101447.59;4793550;29;20070;-76
2023/09/29 09:47:14;;;;;;;5.68;3.55;;;;;;;25.99;45.36;101447.22;4793209;29;20061;-76
2023/09/29 09:49:47;;;;;;;4.82;3.90;;;;;;;26.17;43.83;101446.81;4793285;29;20085;-76
2023/09/29 09:52:24;;;;;;;4.90;3.47;;;;;;;26.20;45.02;101434.84;4792521;29;20054;-77
2023/09/29 09:54:57;;;;;;;6.60;3.72;;;;;;;26.33;44.79;101449.59;4778895;29;20073;-76
2023/09/29 09:57:34;;;;;;;7.65;3.85;;;;;;;26.42;44.35;101443.75;4793397;29;20056;-75
2023/09/29 10:00:08;;;;;;;9.02;4.15;;;;;;;26.48;43.06;101447.88;4778273;29;20062;-76
2023/09/29 10:02:44;;;;;;;;;;;;;;;26.49;43.80;101440.28;4778866;29;20069;-76
2023/09/29 10:05:30;;;;;;;4.20;3.40;;;;;;;26.46;45.03;101433.44;4778580;29;19925;-76
2023/09/29 10:08:02;;;;;;;5.70;3.78;;;;;;;26.52;43.95;101434.75;4793324;29;20073;-76
2023/09/29 10:10:39;;;;;;;4.35;3.75;;;;;;;26.65;43.89;101435.41;4778950;29;20065;-76
2023/09/29 10:13:15;;;;;;;7.45;3.83;;;;;;;26.64;44.50;101430.97;4793236;29;20054;-76
2023/09/29 10:15:56;;;;;;;3.88;3.42;;;;;;;26.78;43.81;101430.44;4794125;29;20061;-75
2023/09/29 10:18:24;;;;;;;7.43;3.72;;;;;;;26.61;44.09;101436.50;4793118;29;20093;-75
2023/09/29 10:21:00;;;;;;;4.45;3.58;;;;;;;26.74;43.47;101423.13;4824679;29;20061;-75
2023/09/29 10:23:30;;;;;;;4.28;3.70;;;;;;;26.92;43.47;101424.31;4796132;29;20053;-76
2023/09/29 10:26:00;;;;;;;4.50;3.22;;;;;;;26.89;43.41;101424.22;4790594;29;20053;-75
2023/09/29 10:28:33;;;;;;;6.13;3.95;;;;;;;26.88;42.23;101426.19;4778081;29;20054;-76
2023/09/29 10:31:15;;;;;;;3.78;3.25;;;;;;;26.98;41.81;101424.00;4778179;29;20061;-76
2023/09/29 10:33:57;;;;;;;7.18;3.58;;;;;;;27.08;43.43;101427.00;4778179;29;20058;-76
2023/09/29 10:36:30;;;;;;;4.63;3.58;;;;;;;27.24;42.19;101426.06;4792777;29;20057;-76
2023/09/29 10:39:00;;;;;;;4.30;3.90;;;;;;;27.19;42.13;101423.56;4777296;29;20505;-77
2023/09/29 10:41:31;;;;;;;5.75;3.95;;;;;;;27.21;41.73;101418.38;4792451;29;20054;-75
2023/09/29 10:44:05;;;;;;;5.75;3.95;;;;;;;27.16;41.24;101419.50;4778044;29;20418;-76
2023/09/29 10:46:34;;;;;;;5.10;3.83;;;;;;;27.18;41.98;101413.53;4792042;29;20426;-76
2023/09/29 10:49:03;;;;;;;9.77;4.18;;;;;;;27.21;42.01;101413.59;4792124;29;20402;-76
2023/09/29 10:51:32;;;;;;;5.93;3.70;;;;;;;27.31;42.22;101406.53;4774125;29;20065;-76
2023/09/29 10:54:07;;;;;;;5.22;3.97;;;;;;;27.48;42.31;101404.38;4784526;29;20051;-76
2023/09/29 10:56:37;;;;;;;7.22;4.25;;;;;;;27.48;42.67;101398.75;4791775;29;20053;-77
2023/09/29 10:59:08;;;;;;;5.32;4.15;;;;;;;27.60;41.53;101401.38;4774031;29;20074;-76
2023/09/29 11:01:37;;;;;;;6.07;3.92;;;;;;;27.73;42.15;101403.97;4773300;29;20061;-76
2023/09/29 11:04:08;;;;;;;8.90;4.57;;;;;;;27.77;42.32;101396.41;4793485;29;20054;-76
2023/09/29 11:06:45;;;;;;;4.38;3.97;;;;;;;27.69;41.60;101392.69;4792170;29;20057;-75
2023/09/29 11:09:28;;;;;;;6.47;4.32;;;;;;;27.72;41.56;101379.88;4780900;29;20489;-76
2023/09/29 11:11:57;;;;;;;6.18;3.35;;;;;;;27.62;42.29;101381.34;4780867;29;20054;-76
2023/09/29 11:14:38;;;;;;;8.70;4.32;;;;;;;27.63;42.83;101383.75;4793808;29;20432;-77
2023/09/29 11:17:08;;;;;;;7.60;4.13;;;;;;;27.65;42.53;101371.34;4792419;29;20058;-76
2023/09/29 11:19:36;;;;;;;6.90;4.60;;;;;;;27.70;43.08;101376.63;4792424;29;20081;-76
2023/09/29 11:22:17;;;;;;;5.80;3.92;;;;;;;27.79;42.96;101365.06;4777475;29;20077;-76
2023/09/29 11:24:50;;;;;;;9.02;4.05;;;;;;;27.88;42.90;101366.44;4792993;29;20085;-76
2023/09/29 11:27:20;;;;;;;7.40;4.25;;;;;;;28.01;42.19;101364.19;4792493;29;20073;-76
2023/09/29 11:29:51;;;;;;;7.88;3.90;;;;;;;28.02;42.15;101362.19;4809945;29;20053;-76
2023/09/29 11:32:20;;;;;;;4.68;4.22;;;;;;;28.10;42.97;101372.31;4810427;29;20081;-76
2023/09/29 11:34:49;;;;;;;4.97;3.80;;;;;;;28.09;41.22;101353.03;4776447;29;20055;-76